Time;durP1;ratioP1;P1;durP2;ratioP2;P2;SDS_P1;SDS_P2;PMS_P1;PMS_P2;Temp;Humidity;BMP_temperature;BMP_pressure;BME280_temperature;BME280_humidity;BME280_pressure;Samples;Min_cycle;Max_cycle;Signal;HPM_P1;HPM_P2
2022/05/10 00:01:25;;;;;;;2.97;2.67;;;;;;;15.83;58.92;100874.81;5067447;28;20245;-80
2022/05/10 00:03:52;;;;;;;4.30;2.60;;;;;;;15.86;55.82;100898.44;5076908;28;20214;-80
2022/05/10 00:06:19;;;;;;;2.97;2.77;;;;;;;15.96;57.06;100913.91;5077250;28;20201;-81
2022/05/10 00:08:46;;;;;;;3.00;2.27;;;;;;;16.04;56.40;100919.78;5076526;28;20228;-79
2022/05/10 00:11:12;;;;;;;3.63;2.63;;;;;;;16.05;56.01;100919.75;5077794;28;20770;-81
2022/05/10 00:13:39;;;;;;;2.80;2.60;;;;;;;16.12;55.91;100930.91;5080174;28;20662;-78
2022/05/10 00:16:12;;;;;;;3.43;2.37;;;;;;;16.16;54.29;100940.44;5077818;28;20236;-80
2022/05/10 00:18:38;;;;;;;2.90;2.70;;;;;;;16.25;54.49;100963.84;5076469;28;20224;-80
2022/05/10 00:21:05;;;;;;;4.00;3.70;;;;;;;16.30;54.53;100965.44;5076280;28;20257;-79
2022/05/10 00:23:32;;;;;;;3.57;2.57;;;;;;;16.29;53.77;100985.63;5076783;28;20265;-78
2022/05/10 00:25:58;;;;;;;4.33;2.20;;;;;;;16.33;54.70;100974.09;5076367;28;20666;-80
2022/05/10 00:28:24;;;;;;;3.57;2.40;;;;;;;16.28;53.84;100979.53;5068194;28;20289;-81
2022/05/10 00:30:51;;;;;;;2.50;2.30;;;;;;;16.28;55.17;100966.34;5067355;28;20623;-80
2022/05/10 00:33:27;;;;;;;2.80;2.40;;;;;;;16.21;54.54;100958.69;5076501;28;20208;-80
2022/05/10 00:35:54;;;;;;;3.20;2.40;;;;;;;16.24;53.76;100962.09;5076665;28;20211;-78
2022/05/10 00:38:25;;;;;;;2.20;2.00;;;;;;;16.30;54.38;100958.41;5076368;28;20239;-78
2022/05/10 00:40:52;;;;;;;2.50;2.30;;;;;;;16.27;55.26;100937.41;5075676;28;20188;-78
2022/05/10 00:43:25;;;;;;;3.53;2.13;;;;;;;16.16;55.01;100939.56;5076097;28;20235;-81
2022/05/10 00:45:57;;;;;;;3.00;2.50;;;;;;;16.16;54.79;100937.78;5076992;28;20212;-78
2022/05/10 00:48:33;;;;;;;2.73;2.30;;;;;;;16.07;56.10;100919.66;5077230;28;20236;-80
2022/05/10 00:51:16;;;;;;;2.97;2.13;;;;;;;15.98;56.50;100898.94;5076264;28;20534;-80
2022/05/10 00:53:54;;;;;;;4.13;2.57;;;;;;;15.92;56.01;100883.34;5076716;28;20211;-80
2022/05/10 00:56:35;;;;;;;3.07;2.20;;;;;;;15.88;56.64;100883.44;5076629;28;20188;-80
2022/05/10 00:59:08;;;;;;;3.23;2.27;;;;;;;15.88;56.79;100865.00;5066424;28;20231;-79
2022/05/10 01:01:37;;;;;;;2.63;2.30;;;;;;;15.78;57.03;100871.50;5068168;28;20270;-80
2022/05/10 01:04:12;;;;;;;2.53;2.00;;;;;;;15.83;56.64;100893.25;5076501;28;20266;-80
2022/05/10 01:06:44;;;;;;;3.73;2.60;;;;;;;15.75;55.75;100868.97;5076851;28;20192;-81
2022/05/10 01:09:16;;;;;;;2.70;2.20;;;;;;;15.83;56.61;100882.72;5076463;28;20250;-81
2022/05/10 01:11:47;;;;;;;2.53;2.30;;;;;;;15.81;55.76;100886.31;5076774;28;20215;-79
2022/05/10 01:14:20;;;;;;;3.03;2.30;;;;;;;15.81;56.89;100854.72;5076816;28;20257;-80
2022/05/10 01:16:46;;;;;;;2.13;2.00;;;;;;;15.74;57.25;100850.56;5071644;28;20247;-78
2022/05/10 01:19:14;;;;;;;2.43;2.10;;;;;;;15.76;57.33;100843.53;5063423;28;20205;-80
2022/05/10 01:21:54;;;;;;;2.87;2.40;;;;;;;15.72;57.84;100831.31;5075917;28;20226;-80
2022/05/10 01:24:51;;;;;;;2.73;2.47;;;;;;;15.61;59.45;100798.31;5076302;28;20203;-80
2022/05/10 01:27:36;;;;;;;2.90;2.27;;;;;;;15.58;58.62;100813.34;5080143;28;20227;-80
2022/05/10 01:30:06;;;;;;;2.07;1.90;;;;;;;15.61;58.46;100806.22;5075073;28;20721;-80
2022/05/10 01:35:29;;;;;;;4.30;2.57;;;;;;;15.58;57.60;100792.31;5080562;28;20277;-80
2022/05/10 01:38:00;;;;;;;2.40;2.03;;;;;;;15.54;58.70;100785.44;5080079;28;20289;-80
2022/05/10 01:40:33;;;;;;;3.20;2.30;;;;;;;15.52;58.79;100768.84;5080088;28;20212;-81
2022/05/10 01:43:04;;;;;;;2.80;2.47;;;;;;;15.45;58.60;100766.41;5079507;28;20212;-79
2022/05/10 01:45:38;;;;;;;3.50;2.53;;;;;;;15.48;59.40;100768.97;5079928;28;20231;-80
2022/05/10 01:48:06;;;;;;;2.10;2.00;;;;;;;15.49;59.47;100769.81;5080594;28;20231;-79
2022/05/10 01:50:39;;;;;;;3.87;2.10;;;;;;;15.47;59.36;100776.91;5079702;28;20211;-80
2022/05/10 01:53:08;;;;;;;2.47;1.70;;;;;;;15.45;60.16;100736.63;5080097;28;20677;-81
2022/05/10 01:55:37;;;;;;;2.90;2.43;;;;;;;15.37;60.61;100717.63;5080711;28;20209;-80
2022/05/10 01:58:07;;;;;;;3.30;2.37;;;;;;;15.27;58.86;100717.94;5080122;28;20361;-81
2022/05/10 02:00:36;;;;;;;2.60;2.40;;;;;;;15.25;59.58;100739.94;5071750;28;20209;-80
2022/05/10 02:03:12;;;;;;;3.63;2.87;;;;;;;15.29;60.44;100718.72;5071320;28;20257;-80
2022/05/10 02:05:48;;;;;;;3.37;2.30;;;;;;;15.23;60.89;100704.94;5079643;28;20241;-81
2022/05/10 02:08:29;;;;;;;2.20;2.00;;;;;;;15.23;59.11;100754.91;5080289;28;20227;-81
2022/05/10 02:11:00;;;;;;;2.47;1.90;;;;;;;15.24;60.41;100732.94;5079494;28;20713;-81
2022/05/10 02:13:31;;;;;;;2.60;2.03;;;;;;;15.25;60.41;100721.53;5079846;28;20241;-81
2022/05/10 02:16:02;;;;;;;2.43;2.10;;;;;;;15.28;60.36;100711.78;5078680;28;20197;-81
2022/05/10 02:18:33;;;;;;;2.23;2.03;;;;;;;15.24;60.18;100723.31;5079862;28;20224;-81
2022/05/10 02:21:07;;;;;;;4.13;2.80;;;;;;;15.18;60.63;100717.38;5078935;28;20713;-81
2022/05/10 02:23:42;;;;;;;2.90;2.60;;;;;;;15.16;60.27;100711.31;5077466;28;20199;-80
2022/05/10 02:26:12;;;;;;;2.97;2.00;;;;;;;15.15;61.19;100696.47;5066840;28;20857;-81
2022/05/10 02:28:45;;;;;;;2.50;2.30;;;;;;;15.14;60.59;100703.47;5077560;28;20220;-80
2022/05/10 02:31:19;;;;;;;2.23;2.03;;;;;;;15.14;60.83;100695.56;5072493;28;20302;-80
2022/05/10 02:33:47;;;;;;;5.03;2.10;;;;;;;15.15;61.32;100685.94;5071294;28;20230;-80
2022/05/10 02:36:13;;;;;;;2.87;2.50;;;;;;;15.10;61.40;100688.69;5078922;28;20204;-81
2022/05/10 02:38:41;;;;;;;2.63;2.10;;;;;;;15.02;61.15;100677.59;5078953;28;20239;-81
2022/05/10 02:41:13;;;;;;;4.30;2.37;;;;;;;15.00;60.87;100695.19;5078528;28;20217;-79
2022/05/10 02:43:46;;;;;;;2.43;2.20;;;;;;;14.97;60.85;100688.28;5079226;28;20221;-81
2022/05/10 02:46:14;;;;;;;2.83;2.20;;;;;;;15.00;60.25;100685.53;5078957;28;20224;-81
2022/05/10 02:48:40;;;;;;;3.30;2.33;;;;;;;15.09;59.41;100719.41;5078377;28;20742;-80
2022/05/10 02:51:07;;;;;;;2.90;2.50;;;;;;;15.16;59.62;100729.72;5078501;28;20261;-80
2022/05/10 02:53:34;;;;;;;2.47;2.27;;;;;;;15.17;60.40;100713.03;5079626;28;20207;-81
2022/05/10 02:56:02;;;;;;;2.37;2.17;;;;;;;15.20;58.63;100736.59;5079514;28;20265;-81
2022/05/10 02:58:32;;;;;;;2.30;2.10;;;;;;;15.16;58.51;100725.31;5078428;28;20228;-81
2022/05/10 03:01:06;;;;;;;3.83;2.07;;;;;;;15.24;57.77;100752.25;5070040;28;20253;-81
2022/05/10 03:03:34;;;;;;;2.30;2.10;;;;;;;15.32;57.80;100769.50;5070292;28;20715;-81
2022/05/10 03:06:01;;;;;;;2.17;2.03;;;;;;;15.38;57.57;100758.78;5077998;28;20281;-81
2022/05/10 03:08:27;;;;;;;3.37;2.77;;;;;;;15.44;57.12;100766.47;5078042;28;20235;-81
2022/05/10 03:10:54;;;;;;;3.40;2.27;;;;;;;15.46;57.77;100756.75;5077209;28;20208;-80
2022/05/10 03:13:20;;;;;;;3.90;2.13;;;;;;;15.44;58.06;100754.19;5077549;28;20208;-80
2022/05/10 03:15:46;;;;;;;3.80;2.17;;;;;;;15.46;57.60;100735.69;5076906;28;20207;-81
2022/05/10 03:18:13;;;;;;;2.47;2.20;;;;;;;15.43;58.60;100727.94;5077714;28;20228;-80
2022/05/10 03:20:40;;;;;;;4.10;2.03;;;;;;;15.40;58.44;100738.53;5077228;28;20212;-80
2022/05/10 03:23:07;;;;;;;3.10;2.30;;;;;;;15.40;58.77;100726.28;5077568;28;20208;-80
2022/05/10 03:25:34;;;;;;;3.30;2.00;;;;;;;15.36;59.65;100708.00;5077571;28;20227;-81
2022/05/10 03:28:00;;;;;;;2.47;1.93;;;;;;;15.31;59.35;100702.91;5077325;28;20227;-80
2022/05/10 03:30:27;;;;;;;2.83;2.50;;;;;;;15.28;59.47;100682.84;5070343;28;20239;-80
2022/05/10 03:32:54;;;;;;;2.67;2.03;;;;;;;15.31;59.83;100688.91;5068829;28;20685;-82
2022/05/10 03:35:21;;;;;;;3.00;1.80;;;;;;;15.29;59.29;100689.81;5078644;28;20261;-80
2022/05/10 03:37:49;;;;;;;3.87;2.27;;;;;;;15.30;60.65;100677.50;5078071;28;20240;-82
2022/05/10 03:40:16;;;;;;;4.00;2.33;;;;;;;15.26;59.87;100668.00;5075879;28;20204;-81
2022/05/10 03:42:44;;;;;;;4.43;2.30;;;;;;;15.29;59.17;100673.16;5077136;28;20207;-80
2022/05/10 03:45:12;;;;;;;4.67;2.30;;;;;;;15.31;59.51;100678.38;5077302;28;20214;-81
2022/05/10 03:47:38;;;;;;;3.17;2.50;;;;;;;15.36;58.63;100690.47;5076880;28;20232;-81
2022/05/10 03:50:07;;;;;;;2.53;2.10;;;;;;;15.39;59.27;100685.09;5076273;28;20207;-81
2022/05/10 03:52:33;;;;;;;4.03;2.27;;;;;;;15.33;58.92;100682.66;5077082;28;20767;-80
2022/05/10 03:55:03;;;;;;;2.73;2.20;;;;;;;15.32;60.22;100677.47;5076655;28;20204;-79
2022/05/10 03:57:29;;;;;;;2.43;1.87;;;;;;;15.28;60.40;100658.28;5076818;28;20372;-81
2022/05/10 03:59:56;;;;;;;2.43;2.20;;;;;;;15.23;60.86;100642.69;5072054;28;20977;-81
2022/05/10 04:02:22;;;;;;;2.23;2.03;;;;;;;15.29;60.83;100654.75;5065288;28;20234;-80
2022/05/10 04:04:48;;;;;;;3.30;2.53;;;;;;;15.23;60.05;100647.94;5076910;28;20231;-80
2022/05/10 04:07:15;;;;;;;2.90;2.40;;;;;;;15.28;59.00;100666.19;5076695;28;20239;-81
2022/05/10 04:09:41;;;;;;;2.47;2.27;;;;;;;15.33;59.23;100676.56;5076303;28;20204;-82
2022/05/10 04:12:10;;;;;;;2.73;2.20;;;;;;;15.41;58.72;100693.78;5077261;28;20211;-81
2022/05/10 04:14:36;;;;;;;2.77;2.40;;;;;;;15.52;58.81;100688.16;5076570;28;20594;-81
2022/05/10 04:17:03;;;;;;;2.70;2.30;;;;;;;15.47;60.72;100646.22;5076706;28;20688;-81
2022/05/10 04:19:30;;;;;;;2.37;2.17;;;;;;;15.42;58.52;100639.38;5076499;28;20208;-81
2022/05/10 04:21:56;;;;;;;2.57;2.37;;;;;;;15.49;60.55;100660.16;5079139;28;20204;-78
2022/05/10 04:24:23;;;;;;;3.33;2.50;;;;;;;15.49;60.91;100646.16;5086234;28;20215;-79
2022/05/10 04:26:50;;;;;;;2.67;2.40;;;;;;;15.52;61.08;100647.81;5087438;28;20300;-78
2022/05/10 04:29:18;;;;;;;2.80;2.10;;;;;;;15.51;61.05;100633.81;5084742;28;20211;-78
2022/05/10 04:31:44;;;;;;;3.60;2.87;;;;;;;15.55;60.56;100638.03;5077042;28;20732;-76
2022/05/10 04:34:10;;;;;;;3.43;2.50;;;;;;;15.59;59.51;100651.94;5080252;28;20751;-78
2022/05/10 04:36:37;;;;;;;3.03;2.73;;;;;;;15.68;58.71;100676.16;5079102;28;20257;-79
2022/05/10 04:39:03;;;;;;;2.50;2.20;;;;;;;15.77;57.60;100719.72;5075638;28;20718;-79
2022/05/10 04:41:31;;;;;;;2.50;2.30;;;;;;;15.87;57.65;100736.06;5071250;28;20208;-80
2022/05/10 04:44:00;;;;;;;4.23;2.17;;;;;;;15.97;57.66;100736.59;5069433;28;20208;-80
2022/05/10 04:46:30;;;;;;;3.23;2.30;;;;;;;16.04;57.68;100735.44;5075927;28;20286;-80
2022/05/10 04:48:57;;;;;;;2.13;1.93;;;;;;;16.09;57.16;100741.38;5076089;28;20232;-79
2022/05/10 04:51:24;;;;;;;3.73;2.47;;;;;;;16.12;57.64;100736.03;5076544;28;20265;-78
2022/05/10 04:53:50;;;;;;;3.80;2.33;;;;;;;16.13;57.47;100739.50;5075968;28;20243;-80
2022/05/10 04:56:17;;;;;;;3.07;2.17;;;;;;;16.19;58.08;100728.75;5075812;28;20278;-78
2022/05/10 04:58:44;;;;;;;2.10;2.00;;;;;;;16.20;58.38;100726.06;5077201;28;20283;-79
2022/05/10 05:01:14;;;;;;;3.17;2.87;;;;;;;16.23;58.34;100720.69;5072621;28;20204;-78
2022/05/10 05:03:44;;;;;;;2.87;2.60;;;;;;;16.26;58.57;100712.66;5076786;28;20581;-80
2022/05/10 05:06:11;;;;;;;2.20;2.00;;;;;;;16.32;58.26;100705.44;5075904;28;20285;-81
2022/05/10 05:08:37;;;;;;;2.70;2.43;;;;;;;16.30;58.97;100700.22;5075358;28;20584;-77
2022/05/10 05:11:04;;;;;;;3.73;2.70;;;;;;;16.34;58.02;100701.81;5072644;28;20227;-80
2022/05/10 05:13:30;;;;;;;3.27;2.33;;;;;;;16.36;60.39;100681.53;5068155;28;20204;-80
2022/05/10 05:15:56;;;;;;;2.70;2.50;;;;;;;16.35;58.71;100681.59;5075901;28;20207;-80
2022/05/10 05:18:23;;;;;;;2.23;2.13;;;;;;;16.38;58.54;100708.69;5075871;28;20228;-80
2022/05/10 05:20:51;;;;;;;4.63;2.20;;;;;;;16.40;59.61;100684.91;5074501;28;20208;-81
2022/05/10 05:23:19;;;;;;;3.23;2.37;;;;;;;16.45;59.20;100690.84;5076602;28;20241;-80
2022/05/10 05:25:45;;;;;;;2.70;2.50;;;;;;;16.48;57.30;100731.13;5075853;28;20337;-80
2022/05/10 05:28:12;;;;;;;4.37;2.80;;;;;;;16.57;58.71;100708.84;5075535;28;20289;-81
2022/05/10 05:30:41;;;;;;;3.73;2.50;;;;;;;16.65;58.58;100698.00;5075335;28;20214;-80
2022/05/10 05:33:08;;;;;;;3.00;2.77;;;;;;;16.70;59.03;100719.75;5080792;28;20262;-79
2022/05/10 05:35:35;;;;;;;4.40;2.73;;;;;;;16.74;58.24;100717.84;5081704;28;20744;-79
2022/05/10 05:38:02;;;;;;;5.20;2.17;;;;;;;16.75;59.52;100724.81;5083185;28;20235;-79
2022/05/10 05:40:29;;;;;;;3.70;2.80;;;;;;;16.82;58.44;100713.16;5079840;28;20244;-79
2022/05/10 05:42:56;;;;;;;2.23;2.13;;;;;;;16.90;58.22;100726.88;5073783;28;20632;-81
2022/05/10 05:45:25;;;;;;;2.50;2.30;;;;;;;16.86;57.93;100718.22;5078699;28;20209;-81
2022/05/10 05:47:51;;;;;;;3.33;2.60;;;;;;;16.92;59.12;100692.53;5065950;28;20232;-80
2022/05/10 05:50:21;;;;;;;2.30;2.10;;;;;;;16.92;59.30;100677.56;5071165;28;20265;-81
2022/05/10 05:52:48;;;;;;;7.13;3.50;;;;;;;16.99;59.74;100684.31;5075844;28;20299;-79
2022/05/10 05:55:18;;;;;;;3.00;2.80;;;;;;;17.02;60.47;100678.91;5075558;28;20740;-82
2022/05/10 05:57:45;;;;;;;2.40;2.20;;;;;;;17.05;61.78;100625.19;5075755;28;20790;-81
2022/05/10 06:00:15;;;;;;;3.00;2.70;;;;;;;17.11;61.23;100634.63;5072755;28;20205;-81
2022/05/10 06:02:42;;;;;;;2.77;2.50;;;;;;;17.06;60.46;100682.25;5075984;28;20201;-81
2022/05/10 06:05:09;;;;;;;3.13;2.40;;;;;;;17.12;59.53;100708.38;5076022;28;20273;-81
2022/05/10 06:07:35;;;;;;;2.83;2.60;;;;;;;17.19;60.64;100691.38;5075778;28;20236;-81
2022/05/10 06:10:02;;;;;;;3.53;2.60;;;;;;;17.19;61.06;100627.22;5075270;28;20262;-79
2022/05/10 06:12:30;;;;;;;2.67;2.47;;;;;;;17.24;60.09;100664.78;5078202;28;20212;-80
2022/05/10 06:14:56;;;;;;;3.10;2.80;;;;;;;17.29;56.75;100688.38;5079905;28;20207;-80
2022/05/10 06:17:23;;;;;;;2.77;2.50;;;;;;;17.38;60.29;100735.44;5072242;28;20228;-80
2022/05/10 06:19:49;;;;;;;3.40;3.10;;;;;;;17.46;61.19;100656.78;5070744;28;20199;-79
2022/05/10 06:22:16;;;;;;;3.90;2.47;;;;;;;17.40;62.34;100614.84;5078760;28;20209;-80
2022/05/10 06:24:42;;;;;;;2.83;2.63;;;;;;;17.39;59.02;100663.28;5079280;28;20266;-79
2022/05/10 06:27:15;;;;;;;2.90;2.70;;;;;;;17.50;60.18;100689.19;5079569;28;20255;-79
2022/05/10 06:29:43;;;;;;;3.13;2.60;;;;;;;17.56;61.57;100625.56;5077166;28;20266;-79
2022/05/10 06:32:11;;;;;;;3.40;2.20;;;;;;;17.65;63.66;100578.50;5067727;28;20206;-80
2022/05/10 06:34:40;;;;;;;3.10;2.80;;;;;;;17.66;59.29;100611.06;5076914;28;20212;-79
2022/05/10 06:38:16;;;;;;;5.07;3.00;;;;;;;17.73;64.21;100564.09;5078694;28;20307;-79
2022/05/10 06:40:04;;;;;;;3.03;2.83;;;;;;;17.83;57.67;100671.88;5077608;28;20212;-80
2022/05/10 06:42:31;;;;;;;3.00;2.80;;;;;;;17.99;58.66;100692.31;5079014;28;20204;-79
2022/05/10 06:44:58;;;;;;;4.10;2.70;;;;;;;18.17;56.57;100744.31;5079021;28;20216;-79
2022/05/10 06:47:25;;;;;;;2.67;2.47;;;;;;;18.30;57.54;100773.69;5078547;28;20258;-79
2022/05/10 06:49:51;;;;;;;3.13;2.90;;;;;;;18.44;55.93;100773.06;5078251;28;20204;-79
2022/05/10 06:52:18;;;;;;;3.10;2.90;;;;;;;18.57;54.30;100782.13;5078732;28;20265;-79
2022/05/10 06:54:44;;;;;;;3.00;2.80;;;;;;;18.66;55.42;100786.13;5082581;28;20578;-79
2022/05/10 06:57:11;;;;;;;3.13;2.80;;;;;;;18.72;55.33;100772.59;5088549;28;20228;-80
2022/05/10 06:59:37;;;;;;;2.70;2.50;;;;;;;18.81;53.69;100806.59;5085496;28;20404;-80
2022/05/10 07:02:05;;;;;;;2.90;2.63;;;;;;;18.90;54.52;100818.50;5073075;28;20210;-80
2022/05/10 07:04:31;;;;;;;5.60;2.77;;;;;;;18.98;54.61;100787.25;5085037;28;20205;-79
2022/05/10 07:06:57;;;;;;;3.73;2.90;;;;;;;19.06;52.74;100834.50;5087097;28;20282;-79
2022/05/10 07:09:24;;;;;;;2.67;2.47;;;;;;;19.19;52.88;100848.88;5082454;28;20200;-79
2022/05/10 07:11:50;;;;;;;2.93;2.70;;;;;;;19.29;52.57;100853.75;5078807;28;20209;-80
2022/05/10 07:14:16;;;;;;;2.73;2.53;;;;;;;19.37;53.13;100851.56;5079154;28;20209;-80
2022/05/10 07:16:43;;;;;;;2.77;2.57;;;;;;;19.50;52.04;100847.34;5078765;28;20201;-79
2022/05/10 07:19:10;;;;;;;3.60;2.83;;;;;;;19.58;51.53;100886.69;5077846;28;20247;-80
2022/05/10 07:21:37;;;;;;;2.97;2.77;;;;;;;19.72;51.77;100883.41;5079226;28;20211;-80
2022/05/10 07:24:04;;;;;;;3.87;2.90;;;;;;;19.69;51.69;100902.09;5077401;28;20418;-80
2022/05/10 07:26:31;;;;;;;2.37;2.23;;;;;;;19.76;51.75;100891.16;5078493;28;20259;-79
2022/05/10 07:28:57;;;;;;;3.27;2.97;;;;;;;19.82;51.13;100896.13;5078616;28;21111;-80
2022/05/10 07:31:23;;;;;;;3.13;2.67;;;;;;;19.92;51.11;100901.81;5072358;28;20209;-80
2022/05/10 07:33:50;;;;;;;2.77;2.50;;;;;;;20.01;50.79;100893.38;5071199;28;20254;-80
2022/05/10 07:36:33;;;;;;;3.43;3.10;;;;;;;20.21;52.59;100886.19;5078707;28;20638;-80
2022/05/10 07:39:00;;;;;;;2.87;2.67;;;;;;;20.38;52.27;100864.97;5078642;28;20596;-80
2022/05/10 07:41:27;;;;;;;3.77;2.87;;;;;;;20.32;50.03;100880.34;5079814;28;20205;-80
2022/05/10 07:43:53;;;;;;;3.43;3.13;;;;;;;20.42;51.24;100902.78;5079782;28;20204;-78
2022/05/10 07:46:19;;;;;;;3.47;2.53;;;;;;;20.38;50.62;100912.69;5079713;28;20225;-79
2022/05/10 07:48:46;;;;;;;3.00;2.70;;;;;;;20.43;51.36;100899.19;5078929;28;20231;-78
2022/05/10 07:51:12;;;;;;;2.67;2.47;;;;;;;20.54;51.97;100872.97;5077816;28;20205;-77
2022/05/10 07:53:41;;;;;;;3.30;2.83;;;;;;;20.38;49.37;100920.66;5077381;28;20209;-79
2022/05/10 07:56:08;;;;;;;2.70;2.50;;;;;;;20.47;50.26;100929.06;5078284;28;20262;-79
2022/05/10 07:58:35;;;;;;;3.43;3.07;;;;;;;20.35;50.25;100930.56;5077602;28;20312;-78
2022/05/10 08:01:02;;;;;;;5.13;3.47;;;;;;;20.33;50.92;100912.06;5070094;28;20209;-79
2022/05/10 08:03:29;;;;;;;2.83;2.63;;;;;;;20.38;51.69;100896.78;5069652;28;20315;-78
2022/05/10 08:05:56;;;;;;;3.27;2.97;;;;;;;20.49;52.33;100871.50;5077717;28;20255;-79
2022/05/10 08:08:23;;;;;;;5.77;3.10;;;;;;;20.47;51.74;100873.38;5077699;28;20231;-77
2022/05/10 08:10:53;;;;;;;3.93;2.97;;;;;;;20.44;51.32;100879.69;5075697;28;20254;-79
2022/05/10 08:13:21;;;;;;;3.60;2.97;;;;;;;20.33;51.19;100896.16;5076833;28;20589;-77
2022/05/10 08:15:48;;;;;;;4.67;3.33;;;;;;;20.16;51.96;100886.44;5078005;28;20213;-79
2022/05/10 08:18:15;;;;;;;5.40;2.90;;;;;;;20.05;52.49;100867.59;5077679;28;20217;-79
2022/05/10 08:20:42;;;;;;;3.10;2.90;;;;;;;20.09;53.89;100863.00;5077199;28;20242;-78
2022/05/10 08:23:11;;;;;;;3.83;2.70;;;;;;;20.12;53.20;100846.91;5077709;28;20213;-78
2022/05/10 08:25:37;;;;;;;3.23;2.87;;;;;;;20.25;53.40;100832.09;5077580;28;20591;-77
2022/05/10 08:28:06;;;;;;;3.13;2.83;;;;;;;20.35;53.09;100843.06;5077195;28;20228;-80
2022/05/10 08:30:32;;;;;;;3.47;3.10;;;;;;;20.42;52.65;100850.59;5071759;28;20686;-78
2022/05/10 08:32:59;;;;;;;2.97;2.77;;;;;;;20.51;52.67;100862.50;5069934;28;20201;-79
2022/05/10 08:35:25;;;;;;;3.10;2.90;;;;;;;20.60;53.05;100862.06;5078748;28;20231;-78
2022/05/10 08:37:51;;;;;;;3.43;3.20;;;;;;;20.72;52.61;100851.72;5078464;28;20232;-79
2022/05/10 08:40:24;;;;;;;3.23;3.03;;;;;;;20.78;52.06;100878.75;5077538;28;20204;-78
2022/05/10 08:42:55;;;;;;;3.60;3.30;;;;;;;20.75;50.72;100905.47;5074768;28;20635;-79
2022/05/10 08:45:24;;;;;;;4.07;3.27;;;;;;;20.91;51.34;100900.19;5070211;28;20586;-79
2022/05/10 08:47:52;;;;;;;3.50;3.20;;;;;;;21.04;51.94;100895.06;5078628;28;20275;-79
2022/05/10 08:50:19;;;;;;;3.23;3.03;;;;;;;21.25;51.12;100885.03;5078019;28;20231;-78
2022/05/10 08:52:47;;;;;;;3.23;2.83;;;;;;;21.35;49.84;100925.22;5078313;28;20733;-79
2022/05/10 08:55:19;;;;;;;3.03;2.70;;;;;;;21.42;49.55;100945.16;5077737;28;20235;-77
2022/05/10 08:57:50;;;;;;;3.17;2.93;;;;;;;21.36;48.25;100954.31;5073046;28;20221;-79
2022/05/10 09:00:25;;;;;;;3.97;3.43;;;;;;;21.51;48.66;100955.31;5063745;28;20251;-78
2022/05/10 09:02:55;;;;;;;3.73;3.43;;;;;;;21.49;47.40;100973.13;5037173;28;20256;-79
2022/05/10 09:05:27;;;;;;;3.30;3.10;;;;;;;21.60;48.24;100996.41;5041132;28;20252;-79
2022/05/10 09:08:04;;;;;;;3.20;2.93;;;;;;;21.77;47.71;100993.66;5038428;28;20676;-79
2022/05/10 09:10:37;;;;;;;3.50;3.30;;;;;;;21.85;47.49;100995.06;5038203;28;20210;-79
2022/05/10 09:13:05;;;;;;;3.67;3.43;;;;;;;21.78;46.95;101013.13;5038694;28;20277;-79
2022/05/10 09:15:34;;;;;;;3.33;2.83;;;;;;;21.74;46.60;101006.28;5039149;28;20206;-78
2022/05/10 09:18:08;;;;;;;2.90;2.70;;;;;;;21.86;47.66;100994.09;5038113;28;20226;-78
2022/05/10 09:20:40;;;;;;;3.30;3.10;;;;;;;21.81;47.91;100981.91;5037892;28;20194;-78
2022/05/10 09:23:25;;;;;;;3.40;3.10;;;;;;;21.75;47.99;100958.34;5038422;28;21044;-79
2022/05/10 09:25:56;;;;;;;3.70;3.40;;;;;;;21.72;48.73;100968.31;5038520;28;20544;-79
2022/05/10 09:28:28;;;;;;;3.70;3.07;;;;;;;21.55;48.00;100969.28;5047253;28;20240;-78
2022/05/10 09:36:26;;;;;;;3.53;3.27;;;;;;;21.80;47.97;100960.75;5078867;28;20207;-77
2022/05/10 09:39:00;;;;;;;3.97;3.63;;;;;;;21.80;47.90;100960.75;5077393;28;20259;-80
2022/05/10 09:41:32;;;;;;;3.80;3.50;;;;;;;21.99;48.83;100937.47;5078078;28;20203;-79
2022/05/10 09:44:13;;;;;;;4.23;3.93;;;;;;;22.21;49.81;100909.59;5076441;28;20204;-78
2022/05/10 09:46:40;;;;;;;4.00;3.70;;;;;;;22.34;47.85;100954.97;5071467;28;20193;-79
2022/05/10 09:49:30;;;;;;;3.97;3.47;;;;;;;22.17;46.93;100982.53;5081138;28;20232;-78
2022/05/10 09:51:58;;;;;;;4.07;3.77;;;;;;;21.96;46.18;101001.47;5082608;28;20648;-80
2022/05/10 09:54:34;;;;;;;4.00;3.70;;;;;;;22.22;48.80;100972.50;5081989;28;20208;-79
2022/05/10 09:57:00;;;;;;;4.87;3.80;;;;;;;22.28;47.49;100950.00;5081572;28;20200;-77
2022/05/10 09:59:30;;;;;;;4.10;3.80;;;;;;;22.44;47.58;100961.47;5079362;28;20204;-78
2022/05/10 10:01:58;;;;;;;4.20;3.90;;;;;;;22.56;46.79;100934.09;5080060;28;20204;-79
2022/05/10 10:04:31;;;;;;;3.97;3.67;;;;;;;22.59;46.38;100981.78;5080202;28;20259;-78
2022/05/10 10:07:07;;;;;;;4.30;3.97;;;;;;;22.80;47.09;100950.34;5079536;28;20207;-78
2022/05/10 10:09:35;;;;;;;4.20;3.90;;;;;;;22.94;46.33;100969.94;5079062;28;20200;-79
2022/05/10 10:12:02;;;;;;;5.43;3.50;;;;;;;23.04;46.96;100976.44;5079710;28;20810;-79
2022/05/10 10:14:40;;;;;;;4.10;3.80;;;;;;;23.06;45.45;100990.50;5077890;28;20205;-78
2022/05/10 10:17:18;;;;;;;3.70;3.50;;;;;;;23.17;45.44;100987.16;5073432;28;20742;-78
2022/05/10 10:19:49;;;;;;;4.30;3.90;;;;;;;23.12;45.52;100998.09;5078931;28;20213;-80
2022/05/10 10:22:20;;;;;;;6.03;4.70;;;;;;;23.30;46.77;100969.44;5079727;28;20211;-78
2022/05/10 10:24:52;;;;;;;4.57;4.17;;;;;;;23.38;45.54;100967.16;5086528;28;20189;-79
2022/05/10 10:27:23;;;;;;;4.30;4.00;;;;;;;23.30;45.14;101014.75;5082375;28;20225;-78
2022/05/10 10:29:54;;;;;;;3.57;3.33;;;;;;;23.43;45.78;101005.97;5071522;28;20201;-79
2022/05/10 10:32:28;;;;;;;4.07;3.73;;;;;;;23.53;45.32;101009.78;5093114;28;20209;-77
2022/05/10 10:35:03;;;;;;;4.47;3.83;;;;;;;23.68;45.28;100995.44;5094885;28;20254;-77
2022/05/10 10:37:35;;;;;;;4.43;4.10;;;;;;;23.77;43.57;101008.19;5094763;28;20319;-78
2022/05/10 10:40:11;;;;;;;4.60;4.20;;;;;;;23.79;42.78;101074.75;5085323;28;20235;-79
2022/05/10 10:42:48;;;;;;;4.57;4.17;;;;;;;23.87;42.88;101063.59;5081539;28;20182;-79
2022/05/10 10:45:16;;;;;;;4.20;3.90;;;;;;;23.93;43.13;101063.19;5073220;28;20675;-77
2022/05/10 10:47:51;;;;;;;4.47;4.10;;;;;;;23.64;42.64;101073.03;5071916;28;20274;-78
2022/05/10 10:50:25;;;;;;;4.10;3.80;;;;;;;23.80;44.06;101052.47;5080349;28;20262;-79
2022/05/10 10:52:52;;;;;;;4.37;4.07;;;;;;;24.03;43.61;101044.78;5069659;28;20203;-78
2022/05/10 10:55:21;;;;;;;3.97;3.67;;;;;;;24.03;43.25;101066.97;5077185;28;20197;-78
2022/05/10 10:58:02;;;;;;;4.50;4.13;;;;;;;23.91;42.72;101076.63;5078523;28;20294;-79
2022/05/10 11:00:34;;;;;;;5.20;3.90;;;;;;;23.84;42.84;101035.31;5073416;22;20261;-80
2022/05/10 11:03:07;;;;;;;4.50;4.20;;;;;;;24.04;43.92;101018.00;5065467;28;20206;-80
2022/05/10 11:06:13;;;;;;;3.67;3.47;;;;;;;24.10;42.54;101016.72;5057150;28;20191;-80
2022/05/10 11:09:00;;;;;;;4.10;3.90;;;;;;;24.43;43.07;101034.97;5058366;28;20231;-79
2022/05/10 11:11:36;;;;;;;4.43;4.13;;;;;;;24.63;41.96;101036.31;5057777;28;20764;-80
2022/05/10 11:14:18;;;;;;;3.93;3.63;;;;;;;24.68;40.75;101073.38;5057323;28;20209;-80
2022/05/10 11:16:55;;;;;;;4.40;3.77;;;;;;;24.71;41.90;101071.34;5057123;28;20209;-81
2022/05/10 11:19:45;;;;;;;6.07;4.73;;;;;;;24.82;40.80;101112.50;5057811;28;20224;-80
2022/05/10 11:22:30;;;;;;;3.80;3.60;;;;;;;25.08;39.35;101103.53;5056489;28;20201;-80
2022/05/10 11:25:08;;;;;;;4.30;4.00;;;;;;;25.11;39.07;101131.84;5070924;28;20195;-80
2022/05/10 11:27:52;;;;;;;4.27;4.07;;;;;;;25.26;38.18;101151.34;5076600;28;20201;-81
2022/05/10 11:30:22;;;;;;;4.60;4.20;;;;;;;25.48;37.84;101182.78;5076014;28;20266;-80
2022/05/10 11:33:10;;;;;;;3.77;3.53;;;;;;;25.75;37.96;101174.63;5077002;28;20223;-79
2022/05/10 11:35:51;;;;;;;4.53;4.20;;;;;;;26.04;38.01;101179.72;5077244;28;20192;-79
2022/05/10 11:38:43;;;;;;;4.23;4.00;;;;;;;26.04;37.66;101191.28;5076596;28;20204;-80
2022/05/10 11:41:21;;;;;;;4.60;4.13;;;;;;;25.46;36.84;101214.97;5077082;28;20209;-81
2022/05/10 11:44:19;;;;;;;4.10;3.90;;;;;;;25.52;37.90;101194.97;5077080;28;20244;-80
2022/05/10 11:47:05;;;;;;;4.30;4.10;;;;;;;26.17;37.90;101175.22;5074063;28;20212;-81